Toussaint Louverture International Airport
MTPP : now visible

Airfield :











YOU CAN JOIN US ON...

 
LOGIN :

Register | Disclaimer

   EN    FR    IT 

 









Legend :    VFR   Marginal VFR   IFR   Intensive IFR   Very Intensive IFR
Visi :
Ceiling :
>= 8 km
>= 3000ft
5 to 8 km
1000 to 3000 ft
1500m to 5 km
500 to 1000 ft
800 to 1500m
200 to 500 ft
< 800m
< 200 ft
Symbols :   Thunderstorms  Fog  Heavy snow  Heavy precipitations  Wind > 20 kt






- Airport Elevation : 122 ft
- IATA code : PAP


MTPP - Toussaint Louverture International

CURRENT METAR :
  • 280059Z AUTO /////KT //// ////// ///// Q//// A//// NOSIG

EXPIRED METARs :
  • 272359Z AUTO /////KT //// ////// ///// Q//// A//// NOSIG
  • 272259Z AUTO /////KT //// ////// ///// Q//// A//// NOSIG

TAF TAF MTPP
Valid from the 27 at 18:00 until the 28 at 18:00 UTC


271524Z 2718/2818 09008KT 9000 FEW024
BECMG 2718/2722 27010KT
PROB40
TEMPO 2800/2804 09010KT 9000 SCT030CB BKN040
BECMG 2808/2812 VRB02KT 9000 FEW018
BECMG 2814/2818 27010KT
MTEG FIR / North America



MET'MAP, your aeronautical weather chart ! - Copyright ORBIFLY December 2007 - Disclaimer

ORBIFLY MET'MAP TEAM :

Programming & Development : Alexandra Zaïnal
Concept & original design : Baudouin d'Aumeries
Assistance for programming : Marc-Olivier Méhu
Technical & hardware support : Manuel Goepfert

Contact : metmap@orbifly.com




SOURCES & CREDITS :

   NOAA       Earth
Advisory